Ellsburg, Minnesota
Current Conditions -  °F | °C
As of 3:11 AM on Monday 24 Nov 2014 (Local Time) from KEVM Reporting Station
Unknown Precip Unknown Precip  
Wind Chill: 24°   Ceiling: 900
Heat Index: 32°   Visibility: 7mi
Dew Point: 32°   Wind: 10mph
Humidity: 100%   Direction: 330°NNW
Pressure: 29.27"   Gusts: 17mph
Location:  47.2457°N, 92.4531°W
Report Text: KEVM 240911Z AUTO 33009G15KT 7SM UP OVC009 00/00 A2927 RMK AO2
Loading
Personal Weather Stations






























Interactive Weather Map New forecast layout! Learn more

10-Day Weather Forecast

Advertisements
Track Severe Weather on mobile